Yellow Rock, KY

11:11 PM EST on February 08, 2016 (GMT -0500)
wind cave ky | | Change Station
CLOSE
Current Station
Personal Weather Station
Location: McKee, KY
Elevation: 1027 ft
Nearby Weather Stations
Active Advisory: Winter Weather Advisory

Elev 1027 ft 37.50 °N, 83.94 °W | Updated 3 minutes ago

Snow
Snow
27.7 °F
Feels Like 28 °F
N
2.7
Wind Variable Wind from ESE

Today
High -- | Low -- °F
--% Chance of Precip.
Yesterday
High -- | Low -- °F
Precip. -- in
Pressure 29.71 in
Visibility 2.0 miles
Clouds Scattered Clouds 1200 ft
Scattered Clouds 1900 ft
Overcast 4000 ft
Windchill 28 °F
Dew Point 26 °F
Humidity 95%
Rainfall 0.31 in
Snow Depth Not available.
7:32 AM 6:06 PM
New Moon, 0% visible
SPECI KJKL 090402Z AUTO 27008G16KT 230V300 2SM -SN SCT012 SCT019 OVC040 M02/M05 A2971 RMK AO2 P0000 T10221050
Pressure 29.71 in
Visibility 2.0 miles
Clouds Scattered Clouds 1200 ft
Scattered Clouds 1900 ft
Overcast 4000 ft
Windchill 28 °F
Dew Point 26 °F
Humidity 95%
Rainfall 0.31 in
Snow Depth Not available.
7:32 AM 6:06 PM
New Moon, 0% visible
SPECI KJKL 090402Z AUTO 27008G16KT 230V300 2SM -SN SCT012 SCT019 OVC040 M02/M05 A2971 RMK AO2 P0000 T10221050

10-Day Weather Forecast

Almanac

Astronomy

Feb. 08, 2016 Rise Set
Actual Time
Civil Twilight
Nautical Twilight
Astronomical Twilight
Moon
Length of Visible Light
Length of Day
Tomorrow will be .
, % of the Moon is Illuminated

Today's Extremes

State Highs State Lows

Community

WunderPhotos

Upload Photos

1,891,535 photos uploaded!

WunderBlog® & News

Nearby

Air Quality

  Air Quality AQ Index Pollutant
Not available.

Snow Depth

Station Depth Elevation

Earthquake Activity

City Distance Mag. Time & Date
Minimum magnitude displayed is 2.5.

Coastal Water Temperatures

Place Temperature

Stations

Nearby Weather Stations

Station Location Temp. Windchill Dew Point Humidity Wind Precip. Elev Updated Type
                   

Watches & Warnings

Winter Weather Advisory
Issued: 10:28 PM EST Feb. 8, 2016 – National Weather Service

... Winter Weather Advisory remains in effect until 6 PM EST
Tuesday...

* periods of snow showers will continue through Tuesday. Snow
showers will then taper off into Tuesday night.

* Light snow will accumulate over a prolonged period... with totals
from tonight through late Tuesday in the 1 to 3 inch range for
most locations.

* Roads and walkways will become slippery... especially those
which are untreated. Localized heavy snow showers may also
bring greatly reduced visibility at times.

Precautionary/preparedness actions...

A Winter Weather Advisory for snow means that periods of snow
will cause primarily travel difficulties. Be prepared for snow
covered roads and limited visibilities... and use caution while
driving.